createdAt,value
2023-05-06T00:00:12.371Z,20.7383
2023-05-06T00:01:14.719Z,20.7469
2023-05-06T00:02:16.981Z,20.7481
2023-05-06T00:03:18.690Z,20.7421
2023-05-06T00:04:22.079Z,20.8077
2023-05-06T00:05:23.888Z,20.8262
2023-05-06T00:06:25.616Z,20.8145
2023-05-06T00:07:28.076Z,20.8388
2023-05-06T00:08:30.383Z,20.8682
2023-05-06T00:09:32.661Z,20.9241
2023-05-06T00:10:35.114Z,20.9802
2023-05-06T00:11:38.117Z,21.0163
2023-05-06T00:12:39.676Z,21.0185
2023-05-06T00:13:42.013Z,21.0174
2023-05-06T00:14:44.959Z,21.0446
2023-05-06T00:15:46.657Z,21.0213
2023-05-06T00:16:49.066Z,20.9938
2023-05-06T00:17:51.760Z,20.9593
2023-05-06T00:18:54.090Z,20.8866
2023-05-06T00:19:56.025Z,20.8320
2023-05-06T00:20:58.359Z,20.7838
2023-05-06T00:22:00.692Z,20.7253
2023-05-06T00:23:03.025Z,20.7820
2023-05-06T00:24:05.464Z,20.8225
2023-05-06T00:25:08.134Z,20.7986
2023-05-06T00:26:10.190Z,20.8640
2023-05-06T00:27:12.499Z,20.9048
2023-05-06T00:28:14.812Z,20.8972
2023-05-06T00:29:17.793Z,20.8578
2023-05-06T00:30:21.511Z,20.7867
2023-05-06T00:31:22.351Z,20.7364
2023-05-06T00:32:24.348Z,20.7203
2023-05-06T00:33:26.421Z,20.6716
2023-05-06T00:34:28.979Z,20.6506
2023-05-06T00:35:31.161Z,20.5872
2023-05-06T00:36:33.764Z,20.4884
2023-05-06T00:37:35.791Z,20.4436
2023-05-06T00:38:39.850Z,20.4236
2023-05-06T00:39:41.872Z,20.3943
2023-05-06T00:40:42.894Z,20.3642
2023-05-06T00:41:45.140Z,20.3124
2023-05-06T00:42:47.457Z,20.2292
2023-05-06T00:43:49.813Z,20.1695
2023-05-06T00:44:52.168Z,20.1709
2023-05-06T00:45:54.557Z,20.1774
2023-05-06T00:46:56.783Z,20.1320
2023-05-06T00:47:59.238Z,20.1006
2023-05-06T00:49:01.515Z,20.1992
2023-05-06T00:50:03.817Z,20.2996
2023-05-06T00:51:06.154Z,20.3123
2023-05-06T00:52:08.485Z,20.2910
2023-05-06T00:53:10.821Z,20.2418
2023-05-06T00:54:13.164Z,20.1764
2023-05-06T00:55:15.565Z,20.1163
2023-05-06T00:56:20.017Z,20.0914
2023-05-06T00:57:20.168Z,20.0544
2023-05-06T00:58:22.510Z,20.0656
2023-05-06T00:59:24.879Z,20.1626
2023-05-06T01:00:27.195Z,20.2328
2023-05-06T01:01:29.582Z,20.2669
2023-05-06T01:02:43.282Z,20.2255
2023-05-06T01:03:34.292Z,20.1545
2023-05-06T01:04:36.559Z,20.1465
2023-05-06T01:05:38.866Z,20.2037
2023-05-06T01:06:41.195Z,20.2721
2023-05-06T01:07:43.542Z,20.2609
2023-05-06T01:08:45.885Z,20.2443
2023-05-06T01:09:48.289Z,20.2508
2023-05-06T01:10:50.713Z,20.2881
2023-05-06T01:11:52.975Z,20.3078
2023-05-06T01:12:55.376Z,20.3400
2023-05-06T01:13:57.657Z,20.3389
2023-05-06T01:15:00.033Z,20.3291
2023-05-06T01:16:02.336Z,20.3877
2023-05-06T01:17:04.705Z,20.4236
2023-05-06T01:18:07.051Z,20.4143
2023-05-06T01:19:09.376Z,20.4056
2023-05-06T01:20:11.738Z,20.4219
2023-05-06T01:21:14.014Z,20.4695
2023-05-06T01:22:16.358Z,20.4654
2023-05-06T01:23:18.713Z,20.4410
2023-05-06T01:24:21.054Z,20.4673
2023-05-06T01:25:23.391Z,20.4837
2023-05-06T01:26:25.808Z,20.4583
2023-05-06T01:27:28.145Z,20.4610
2023-05-06T01:28:30.428Z,20.4443
2023-05-06T01:29:32.832Z,20.4825
2023-05-06T01:30:35.105Z,20.4918
2023-05-06T01:31:37.509Z,20.4683
2023-05-06T01:32:39.783Z,20.4331
2023-05-06T01:33:42.114Z,20.4582
2023-05-06T01:34:44.593Z,20.4679
2023-05-06T01:35:46.837Z,20.4684
2023-05-06T01:36:49.147Z,20.4613
2023-05-06T01:37:51.552Z,20.4484
2023-05-06T01:38:53.784Z,20.4907
2023-05-06T01:39:56.144Z,20.5346
2023-05-06T01:40:58.488Z,20.5640
2023-05-06T01:42:00.824Z,20.5684
2023-05-06T01:43:03.181Z,20.5617
2023-05-06T01:44:05.453Z,20.5976
2023-05-06T01:45:08.170Z,20.6040
2023-05-06T01:46:10.357Z,20.6206
2023-05-06T01:47:12.649Z,20.6320
2023-05-06T01:48:14.852Z,20.5536
2023-05-06T01:49:17.199Z,20.5037
2023-05-06T01:50:19.476Z,20.4404
2023-05-06T01:51:21.896Z,20.3763
2023-05-06T01:52:24.183Z,20.2921
2023-05-06T01:53:26.527Z,20.2698
2023-05-06T01:54:28.870Z,20.3451
2023-05-06T01:55:31.198Z,20.4026
2023-05-06T01:56:33.555Z,20.4743
2023-05-06T01:57:35.937Z,20.5286
2023-05-06T01:58:38.209Z,20.4938
2023-05-06T01:59:40.555Z,20.4664
2023-05-06T02:00:42.891Z,20.3701
2023-05-06T02:01:45.283Z,20.3907
2023-05-06T02:02:47.716Z,20.4328
2023-05-06T02:03:50.064Z,20.4370
2023-05-06T02:04:52.232Z,20.4683
2023-05-06T02:05:54.564Z,20.4693
2023-05-06T02:06:56.918Z,20.5037
2023-05-06T02:07:59.209Z,20.4840
2023-05-06T02:09:01.573Z,20.4953
2023-05-06T02:10:03.919Z,20.4648
2023-05-06T02:11:06.253Z,20.4691
2023-05-06T02:12:08.647Z,20.5159
2023-05-06T02:13:11.054Z,20.5687
2023-05-06T02:14:13.257Z,20.5700
2023-05-06T02:15:15.709Z,20.5920
2023-05-06T02:16:17.979Z,20.5712
2023-05-06T02:17:20.369Z,20.5405
2023-05-06T02:18:22.745Z,20.5561
2023-05-06T02:19:24.959Z,20.6329
2023-05-06T02:20:27.342Z,20.6931
2023-05-06T02:21:29.802Z,20.6640
2023-05-06T02:22:31.991Z,20.6494
2023-05-06T02:23:34.318Z,20.7065
2023-05-06T02:24:36.904Z,20.7770
2023-05-06T02:25:39.133Z,20.7506
2023-05-06T02:26:41.462Z,20.7753
2023-05-06T02:27:43.743Z,20.8068
2023-05-06T02:28:46.102Z,20.8492
2023-05-06T02:29:48.348Z,20.8955
2023-05-06T02:30:50.692Z,20.8563
2023-05-06T02:31:53.171Z,20.7685
2023-05-06T02:32:55.422Z,20.7587
2023-05-06T02:33:57.809Z,20.7384
2023-05-06T02:35:00.065Z,20.7736
2023-05-06T02:36:02.809Z,20.7993
2023-05-06T02:37:04.707Z,20.8633
2023-05-06T02:38:07.082Z,20.8688
2023-05-06T02:39:09.572Z,20.8847
2023-05-06T02:40:11.843Z,20.8999
2023-05-06T02:41:14.097Z,20.9368
2023-05-06T02:42:16.614Z,20.9415
2023-05-06T02:43:19.217Z,20.9436
2023-05-06T02:44:21.176Z,20.9830
2023-05-06T02:45:23.465Z,21.0556
2023-05-06T02:46:25.799Z,21.0201
2023-05-06T02:47:28.179Z,20.9743
2023-05-06T02:48:30.491Z,20.9806
2023-05-06T02:49:32.855Z,21.0233
2023-05-06T02:50:35.162Z,21.0137
2023-05-06T02:51:37.496Z,21.0117
2023-05-06T02:52:39.841Z,21.0298
2023-05-06T02:53:42.178Z,21.1009
2023-05-06T02:54:44.530Z,21.1404
2023-05-06T02:55:47.008Z,21.1473
2023-05-06T02:56:49.210Z,21.1239
2023-05-06T02:57:51.552Z,21.1080
2023-05-06T02:58:53.919Z,21.0626
2023-05-06T02:59:56.316Z,20.9534
2023-05-06T03:00:58.592Z,20.9324
2023-05-06T03:02:00.917Z,20.8754
2023-05-06T03:03:03.267Z,20.7029
2023-05-06T03:04:05.632Z,20.7071
2023-05-06T03:05:08.163Z,20.6899
2023-05-06T03:06:10.283Z,20.6873
2023-05-06T03:07:12.614Z,20.7151
2023-05-06T03:08:14.959Z,20.7416
2023-05-06T03:09:17.319Z,20.7079
2023-05-06T03:10:19.644Z,20.7569
2023-05-06T03:11:21.986Z,20.7945
2023-05-06T03:12:24.321Z,20.8103
2023-05-06T03:13:26.657Z,20.7712
2023-05-06T03:14:29.007Z,20.6956
2023-05-06T03:15:31.417Z,20.7329
2023-05-06T03:16:33.678Z,20.6955
2023-05-06T03:17:36.145Z,20.5710
2023-05-06T03:18:38.379Z,20.5990
2023-05-06T03:19:40.724Z,20.6389
2023-05-06T03:20:43.055Z,20.6859
2023-05-06T03:21:45.452Z,20.7234
2023-05-06T03:22:47.727Z,20.8039
2023-05-06T03:23:50.090Z,20.7806
2023-05-06T03:24:52.435Z,20.6751
2023-05-06T03:25:54.749Z,20.6194
2023-05-06T03:26:57.070Z,20.6075
2023-05-06T03:27:59.422Z,20.6315
2023-05-06T03:29:01.783Z,20.6529
2023-05-06T03:30:04.138Z,20.7094
2023-05-06T03:31:06.745Z,20.7710
2023-05-06T03:32:08.809Z,20.7541
2023-05-06T03:33:11.126Z,20.7624
2023-05-06T03:34:13.491Z,20.7901
2023-05-06T03:35:15.860Z,20.8091
2023-05-06T03:36:18.172Z,20.7146
2023-05-06T03:37:20.519Z,20.6692
2023-05-06T03:38:22.842Z,20.7264
2023-05-06T03:39:25.188Z,20.7724
2023-05-06T03:40:27.573Z,20.7243
2023-05-06T03:41:29.891Z,20.7144
2023-05-06T03:42:32.232Z,20.7550
2023-05-06T03:43:34.552Z,20.7819
2023-05-06T03:44:36.892Z,20.7746
2023-05-06T03:45:39.201Z,20.8117
2023-05-06T03:46:41.953Z,20.8484
2023-05-06T03:47:43.932Z,20.8127
2023-05-06T03:48:46.242Z,20.8478
2023-05-06T03:49:48.613Z,20.8452
2023-05-06T03:50:50.959Z,20.8780
2023-05-06T03:51:53.279Z,20.9130
2023-05-06T03:52:55.619Z,20.9275
2023-05-06T03:53:57.957Z,20.9073
2023-05-06T03:55:00.304Z,20.9228
2023-05-06T03:56:02.656Z,20.8815
2023-05-06T03:57:04.979Z,20.8489
2023-05-06T03:58:07.315Z,20.8386
2023-05-06T03:59:09.655Z,20.9039
2023-05-06T04:00:11.970Z,20.9445
2023-05-06T04:01:14.337Z,20.8870
2023-05-06T04:02:16.853Z,20.8024
2023-05-06T04:03:19.089Z,20.7570
2023-05-06T04:04:21.374Z,20.7835
2023-05-06T04:05:23.720Z,20.7528
2023-05-06T04:06:26.058Z,20.7119
2023-05-06T04:07:28.392Z,20.7691
2023-05-06T04:08:30.745Z,20.8079
2023-05-06T04:09:33.088Z,20.8567
2023-05-06T04:10:35.420Z,20.8889
2023-05-06T04:11:37.759Z,20.9428
2023-05-06T04:12:40.106Z,20.9050
2023-05-06T04:13:42.460Z,20.8946
2023-05-06T04:14:45.225Z,20.8452
2023-05-06T04:15:47.824Z,20.8523
2023-05-06T04:16:49.472Z,20.8652
2023-05-06T04:17:52.062Z,20.8788
2023-05-06T04:18:54.162Z,20.9169
2023-05-06T04:19:56.469Z,20.9329
2023-05-06T04:20:58.964Z,20.9464
2023-05-06T04:22:01.508Z,20.9509
2023-05-06T04:23:03.524Z,20.9091
2023-05-06T04:24:06.393Z,20.8535
2023-05-06T04:25:08.401Z,20.8316
2023-05-06T04:26:10.966Z,20.7567
2023-05-06T04:27:13.970Z,20.7523
2023-05-06T04:28:15.654Z,20.7491
2023-05-06T04:29:17.626Z,20.7308
2023-05-06T04:30:19.922Z,20.7633
2023-05-06T04:31:22.272Z,20.7086
2023-05-06T04:32:24.609Z,20.6080
2023-05-06T04:33:26.959Z,20.5842
2023-05-06T04:34:29.301Z,20.5849
2023-05-06T04:35:31.633Z,20.6339
2023-05-06T04:36:33.992Z,20.6596
2023-05-06T04:37:36.513Z,20.6662
2023-05-06T04:38:38.667Z,20.6954
2023-05-06T04:39:41.010Z,20.6821
2023-05-06T04:40:43.480Z,20.7320
2023-05-06T04:41:45.656Z,20.8310
2023-05-06T04:42:48.006Z,20.9168
2023-05-06T04:43:50.306Z,20.9080
2023-05-06T04:44:52.695Z,20.9358
2023-05-06T04:45:55.050Z,21.0139
2023-05-06T04:46:57.383Z,21.0521
2023-05-06T04:47:59.732Z,21.0832
2023-05-06T04:49:02.122Z,21.0481
2023-05-06T04:50:04.422Z,21.0333
2023-05-06T04:51:06.718Z,21.0287
2023-05-06T04:52:09.066Z,21.0433
2023-05-06T04:53:11.400Z,21.0354
2023-05-06T04:54:13.761Z,21.0619
2023-05-06T04:55:16.122Z,21.0199
2023-05-06T04:56:18.434Z,20.9472
2023-05-06T04:57:20.774Z,20.8696
2023-05-06T04:58:23.120Z,20.8205
2023-05-06T04:59:25.482Z,20.7983
2023-05-06T05:00:27.820Z,20.7894
2023-05-06T05:01:30.206Z,20.7212
2023-05-06T05:02:32.573Z,20.6222
2023-05-06T05:03:34.920Z,20.6130
2023-05-06T05:04:37.171Z,20.6723
2023-05-06T05:05:39.530Z,20.7498
2023-05-06T05:06:41.864Z,20.7624
2023-05-06T05:07:44.193Z,20.6913
2023-05-06T05:08:46.551Z,20.6007
2023-05-06T05:09:48.885Z,20.5491
2023-05-06T05:10:51.245Z,20.5448
2023-05-06T05:11:53.568Z,20.4882
2023-05-06T05:12:55.952Z,20.4283
2023-05-06T05:13:59.579Z,20.3795
2023-05-06T05:15:00.717Z,20.3507
2023-05-06T05:16:03.044Z,20.3493
2023-05-06T05:17:05.418Z,20.3145
2023-05-06T05:18:07.820Z,20.3337
2023-05-06T05:19:10.060Z,20.4312
2023-05-06T05:20:12.411Z,20.5047
2023-05-06T05:21:14.760Z,20.5548
2023-05-06T05:22:17.088Z,20.5807
2023-05-06T05:23:19.426Z,20.5999
2023-05-06T05:24:21.765Z,20.6411
2023-05-06T05:25:24.104Z,20.6348
2023-05-06T05:26:26.450Z,20.6173
2023-05-06T05:27:28.801Z,20.6607
2023-05-06T05:28:31.139Z,20.6549
2023-05-06T05:29:33.482Z,20.6758
2023-05-06T05:30:35.819Z,20.7377
2023-05-06T05:31:38.190Z,20.7633
2023-05-06T05:32:40.507Z,20.6773
2023-05-06T05:33:42.889Z,20.5971
2023-05-06T05:34:45.203Z,20.5710
2023-05-06T05:35:47.609Z,20.6349
2023-05-06T05:36:49.873Z,20.6479
2023-05-06T05:37:52.213Z,20.6263
2023-05-06T05:38:54.569Z,20.6874
2023-05-06T05:39:56.899Z,20.6661
2023-05-06T05:40:59.234Z,20.6273
2023-05-06T05:42:01.587Z,20.6403
2023-05-06T05:43:03.916Z,20.6537
2023-05-06T05:44:06.259Z,20.6812
2023-05-06T05:45:08.706Z,20.6806
2023-05-06T05:46:10.951Z,20.7528
2023-05-06T05:47:13.272Z,20.7603
2023-05-06T05:48:15.616Z,20.7706
2023-05-06T05:49:17.967Z,20.8110
2023-05-06T05:50:20.296Z,20.8221
2023-05-06T05:51:22.820Z,20.8889
2023-05-06T05:52:24.978Z,20.9615
2023-05-06T05:53:27.317Z,21.0695
2023-05-06T05:54:29.698Z,21.1266
2023-05-06T05:55:31.995Z,21.0763
2023-05-06T05:56:34.338Z,21.1255
2023-05-06T05:57:37.504Z,21.1719
2023-05-06T05:58:39.062Z,21.2166
2023-05-06T05:59:41.414Z,21.2570
2023-05-06T06:00:44.040Z,21.3365
2023-05-06T06:01:46.465Z,21.3757
2023-05-06T06:02:48.426Z,21.3471
2023-05-06T06:03:50.948Z,21.2327
2023-05-06T06:04:53.249Z,21.0362
2023-05-06T06:05:55.596Z,20.9800
2023-05-06T06:06:57.917Z,20.9810
2023-05-06T06:08:02.210Z,20.9457
2023-05-06T06:09:02.400Z,20.9558
2023-05-06T06:10:04.787Z,20.9223
2023-05-06T06:11:07.168Z,20.9619
2023-05-06T06:12:09.424Z,21.0849
2023-05-06T06:13:11.877Z,21.1315
2023-05-06T06:14:14.171Z,21.1417
2023-05-06T06:15:16.459Z,21.1166
2023-05-06T06:16:18.855Z,21.0674
2023-05-06T06:17:21.677Z,20.9049
2023-05-06T06:18:23.467Z,20.8560
2023-05-06T06:19:25.823Z,20.7966
2023-05-06T06:20:28.154Z,20.7946
2023-05-06T06:21:30.635Z,20.8476
2023-05-06T06:22:32.991Z,20.8677
2023-05-06T06:23:35.241Z,20.8510
2023-05-06T06:24:37.539Z,20.9236
2023-05-06T06:25:39.996Z,20.9872
2023-05-06T06:26:42.277Z,21.0292
2023-05-06T06:27:44.605Z,21.0813
2023-05-06T06:28:47.030Z,21.1166
2023-05-06T06:29:49.205Z,21.1132
2023-05-06T06:30:52.605Z,21.0500
2023-05-06T06:31:54.862Z,20.9959
2023-05-06T06:32:56.483Z,20.9871
2023-05-06T06:33:58.907Z,20.9549
2023-05-06T06:35:00.890Z,20.9051
2023-05-06T06:36:03.232Z,20.8825
2023-05-06T06:37:07.806Z,20.8537
2023-05-06T06:38:12.313Z,20.7928
2023-05-06T06:39:10.239Z,20.7168
2023-05-06T06:40:14.890Z,20.7298
2023-05-06T06:41:15.096Z,20.7533
2023-05-06T06:42:17.789Z,20.8337
2023-05-06T06:43:19.593Z,20.9009
2023-05-06T06:44:22.857Z,20.9211
2023-05-06T06:45:24.811Z,20.9996
2023-05-06T06:46:26.627Z,21.0203
2023-05-06T06:47:29.055Z,21.0631
2023-05-06T06:48:31.366Z,21.0460
2023-05-06T06:49:33.728Z,21.0106
2023-05-06T06:50:35.975Z,21.0261
2023-05-06T06:51:38.310Z,21.0346
2023-05-06T06:52:40.720Z,20.9711
2023-05-06T06:53:43.120Z,20.8573
2023-05-06T06:54:45.334Z,20.7448
2023-05-06T06:55:47.770Z,20.7528
2023-05-06T06:56:50.007Z,20.7744
2023-05-06T06:57:52.345Z,20.7156
2023-05-06T06:58:54.665Z,20.7344
2023-05-06T06:59:57.136Z,20.8168
2023-05-06T07:00:59.406Z,20.9278
2023-05-06T07:02:01.671Z,20.8847
2023-05-06T07:03:04.139Z,20.8733
2023-05-06T07:04:07.227Z,20.8669
2023-05-06T07:05:08.992Z,20.7664
2023-05-06T07:06:11.009Z,20.6130
2023-05-06T07:07:13.511Z,20.6591
2023-05-06T07:08:16.059Z,20.7689
2023-05-06T07:09:18.100Z,20.8160
2023-05-06T07:10:20.730Z,20.8726
2023-05-06T07:11:22.802Z,20.9565
2023-05-06T07:12:25.234Z,21.0550
2023-05-06T07:13:27.438Z,21.0648
2023-05-06T07:14:29.736Z,21.0695
2023-05-06T07:15:32.200Z,21.1693
2023-05-06T07:16:34.409Z,21.3191
2023-05-06T07:17:36.919Z,21.3616
2023-05-06T07:18:39.814Z,21.3549
2023-05-06T07:19:41.422Z,21.3411
2023-05-06T07:20:43.798Z,21.3822
2023-05-06T07:21:46.120Z,21.4193
2023-05-06T07:22:48.471Z,21.3851
2023-05-06T07:23:50.816Z,21.3699
2023-05-06T07:24:53.287Z,21.3408
2023-05-06T07:25:55.539Z,21.4474
2023-05-06T07:26:58.055Z,21.5378
2023-05-06T07:28:00.139Z,21.5023
2023-05-06T07:29:11.842Z,21.2692
2023-05-06T07:30:04.888Z,21.1325
2023-05-06T07:31:07.356Z,21.1189
2023-05-06T07:32:09.589Z,21.1187
2023-05-06T07:33:11.970Z,21.2106
2023-05-06T07:34:14.566Z,21.2046
2023-05-06T07:35:16.536Z,21.2154
2023-05-06T07:36:18.853Z,21.3312
2023-05-06T07:37:21.229Z,21.4370
2023-05-06T07:38:23.558Z,21.4969
2023-05-06T07:39:25.958Z,21.4721
2023-05-06T07:40:28.294Z,21.4419
2023-05-06T07:41:30.551Z,21.4396
2023-05-06T07:42:32.935Z,21.5621
2023-05-06T07:43:35.327Z,21.6348
2023-05-06T07:44:37.588Z,21.6805
2023-05-06T07:45:40.022Z,21.5797
2023-05-06T07:46:42.440Z,21.4595
2023-05-06T07:47:44.687Z,21.4465
2023-05-06T07:48:46.986Z,21.4095
2023-05-06T07:49:49.316Z,21.4735
2023-05-06T07:50:51.965Z,21.6136
2023-05-06T07:51:54.032Z,21.6931
2023-05-06T07:52:56.597Z,21.7185
2023-05-06T07:53:58.762Z,21.7334
2023-05-06T07:55:01.008Z,21.8306
2023-05-06T07:56:03.425Z,22.0161
2023-05-06T07:57:06.159Z,22.1571
2023-05-06T07:58:08.012Z,22.3212
2023-05-06T07:59:10.477Z,22.4593
2023-05-06T08:00:12.878Z,22.4996
2023-05-06T08:01:15.041Z,22.5402
2023-05-06T08:02:17.591Z,22.6759
2023-05-06T08:03:20.219Z,22.7822
2023-05-06T08:04:22.754Z,22.7262
2023-05-06T08:05:25.467Z,22.5828
2023-05-06T08:06:27.395Z,22.4265
2023-05-06T08:07:29.279Z,22.4030
2023-05-06T08:08:31.541Z,22.4144
2023-05-06T08:09:34.030Z,22.5679
2023-05-06T08:10:36.250Z,22.7461
2023-05-06T08:11:39.137Z,22.9046
2023-05-06T08:12:40.879Z,23.0679
2023-05-06T08:13:43.262Z,23.2218
2023-05-06T08:14:47.174Z,23.4227
2023-05-06T08:15:47.961Z,23.5426
2023-05-06T08:16:50.415Z,23.6212
2023-05-06T08:17:52.965Z,23.6925
2023-05-06T08:18:55.454Z,23.7037
2023-05-06T08:19:57.288Z,23.7340
2023-05-06T08:20:59.623Z,23.8910
2023-05-06T08:22:02.285Z,24.0368
2023-05-06T08:23:04.713Z,24.1213
2023-05-06T08:24:06.781Z,24.2075
2023-05-06T08:25:11.006Z,24.2359
2023-05-06T08:26:11.330Z,24.3016
2023-05-06T08:27:15.013Z,24.4349
2023-05-06T08:28:15.958Z,24.4602
2023-05-06T08:29:18.405Z,24.4976
2023-05-06T08:30:20.674Z,24.5806
2023-05-06T08:31:23.028Z,24.6273
2023-05-06T08:32:25.530Z,24.6686
2023-05-06T08:33:27.694Z,24.6928
2023-05-06T08:34:30.024Z,24.7162
2023-05-06T08:35:32.419Z,24.7548
2023-05-06T08:36:34.672Z,24.8392
2023-05-06T08:37:37.167Z,24.9165
2023-05-06T08:38:39.390Z,24.9896
2023-05-06T08:39:41.741Z,25.0690
2023-05-06T08:40:44.054Z,25.1677
2023-05-06T08:41:46.425Z,25.2400
2023-05-06T08:42:48.764Z,25.3753
2023-05-06T08:43:51.073Z,25.4764
2023-05-06T08:44:53.466Z,25.5433
2023-05-06T08:45:55.861Z,25.6366
2023-05-06T08:46:58.142Z,25.6720
2023-05-06T08:48:00.519Z,25.6933
2023-05-06T08:49:02.824Z,25.7767
2023-05-06T08:50:05.170Z,25.8477
2023-05-06T08:51:07.540Z,25.9142
2023-05-06T08:52:09.862Z,26.0179
2023-05-06T08:53:12.259Z,26.0374
2023-05-06T08:54:14.534Z,26.0578
2023-05-06T08:55:17.579Z,26.0820
2023-05-06T08:56:19.253Z,26.0885
2023-05-06T08:57:21.568Z,26.0930
2023-05-06T08:58:23.986Z,26.1192
2023-05-06T08:59:26.328Z,26.1927
2023-05-06T09:00:28.695Z,26.3120
2023-05-06T09:01:31.071Z,26.3946
2023-05-06T09:02:33.424Z,26.3610
2023-05-06T09:03:35.691Z,26.3452
2023-05-06T09:04:38.042Z,26.2999
2023-05-06T09:05:40.368Z,26.3548
2023-05-06T09:06:42.738Z,26.4195
2023-05-06T09:07:45.199Z,26.5081
2023-05-06T09:08:47.401Z,26.6083
2023-05-06T09:09:49.803Z,26.6436
2023-05-06T09:10:52.147Z,26.6884
2023-05-06T09:11:54.468Z,26.7416
2023-05-06T09:12:56.957Z,26.7809
2023-05-06T09:13:59.275Z,26.9229
2023-05-06T09:15:01.547Z,26.9997
2023-05-06T09:16:03.887Z,27.0434
2023-05-06T09:17:06.273Z,27.1144
2023-05-06T09:18:08.689Z,27.1813
2023-05-06T09:19:10.938Z,27.2828
2023-05-06T09:20:13.342Z,27.3564
2023-05-06T09:21:15.658Z,27.3642
2023-05-06T09:22:18.028Z,27.3883
2023-05-06T09:23:20.376Z,27.4669
2023-05-06T09:24:22.787Z,27.4552
2023-05-06T09:25:25.118Z,27.3847
2023-05-06T09:26:27.450Z,27.3711
2023-05-06T09:27:29.762Z,27.3606
2023-05-06T09:28:32.139Z,27.3238
2023-05-06T09:29:34.504Z,27.4414
2023-05-06T09:30:36.829Z,27.5964
2023-05-06T09:31:39.215Z,27.7565
2023-05-06T09:32:41.568Z,27.8364
2023-05-06T09:33:43.858Z,27.9408
2023-05-06T09:34:47.622Z,28.0638
2023-05-06T09:35:48.628Z,28.1034
2023-05-06T09:36:51.140Z,28.0467
2023-05-06T09:38:12.447Z,28.1057
2023-05-06T09:39:03.249Z,28.1579
2023-05-06T09:39:57.955Z,28.1332
2023-05-06T09:41:01.903Z,28.0778
2023-05-06T09:42:02.737Z,28.0740
2023-05-06T09:43:05.076Z,28.1643
2023-05-06T09:44:07.405Z,28.2974
2023-05-06T09:45:10.023Z,28.3571
2023-05-06T09:46:12.077Z,28.4594
2023-05-06T09:47:14.445Z,28.5648
2023-05-06T09:48:18.947Z,28.5550
2023-05-06T09:49:20.777Z,28.6266
2023-05-06T09:50:21.738Z,28.7634
2023-05-06T09:51:23.847Z,28.7845
2023-05-06T09:52:26.194Z,28.7066
2023-05-06T09:53:28.544Z,28.5628
2023-05-06T09:54:30.912Z,28.4575
2023-05-06T09:55:33.258Z,28.4596
2023-05-06T09:56:35.637Z,28.4006
2023-05-06T09:57:37.932Z,28.4844
2023-05-06T09:58:40.628Z,28.5302
2023-05-06T09:59:42.666Z,28.5869
2023-05-06T10:00:45.068Z,28.5700
2023-05-06T10:01:47.416Z,28.4839
2023-05-06T10:02:50.007Z,28.4147
2023-05-06T10:03:52.218Z,28.3451
2023-05-06T10:04:54.698Z,28.4014
2023-05-06T10:05:56.779Z,28.4315
2023-05-06T10:06:59.102Z,28.4625
2023-05-06T10:08:01.433Z,28.4819
2023-05-06T10:09:03.784Z,28.5582
2023-05-06T10:10:06.165Z,28.6071
2023-05-06T10:11:08.515Z,28.6215
2023-05-06T10:12:10.887Z,28.5713
2023-05-06T10:13:13.236Z,28.4480
2023-05-06T10:14:15.569Z,28.3146
2023-05-06T10:15:17.909Z,28.1614
2023-05-06T10:16:20.341Z,28.1265
2023-05-06T10:17:22.638Z,28.1478
2023-05-06T10:18:24.947Z,28.0648
2023-05-06T10:19:27.304Z,27.9818
2023-05-06T10:20:29.643Z,27.8251
2023-05-06T10:21:32.008Z,27.8513
2023-05-06T10:22:34.361Z,27.8239
2023-05-06T10:23:36.698Z,27.7256
2023-05-06T10:24:39.067Z,27.7449
2023-05-06T10:25:41.409Z,27.8088
2023-05-06T10:26:43.774Z,27.8816
2023-05-06T10:27:46.110Z,27.8799
2023-05-06T10:28:48.456Z,27.9538
2023-05-06T10:29:50.797Z,27.9939
2023-05-06T10:30:53.142Z,27.9520
2023-05-06T10:31:55.820Z,27.9384
2023-05-06T10:32:57.918Z,27.8739
2023-05-06T10:34:00.241Z,27.8570
2023-05-06T10:35:02.587Z,27.8250
2023-05-06T10:36:04.941Z,27.6509
2023-05-06T10:37:07.287Z,27.5185
2023-05-06T10:38:09.630Z,27.4548
2023-05-06T10:39:11.980Z,27.4566
2023-05-06T10:40:14.336Z,27.4491
2023-05-06T10:41:16.690Z,27.4455
2023-05-06T10:42:19.050Z,27.4022
2023-05-06T10:43:21.400Z,27.3404
2023-05-06T10:44:23.719Z,27.3756
2023-05-06T10:45:26.105Z,27.3316
2023-05-06T10:46:28.455Z,27.2853
2023-05-06T10:47:30.919Z,27.3580
2023-05-06T10:48:33.131Z,27.3375
2023-05-06T10:49:35.504Z,27.3067
2023-05-06T10:50:37.842Z,27.3231
2023-05-06T10:51:40.206Z,27.4369
2023-05-06T10:52:42.551Z,27.4839
2023-05-06T10:53:44.889Z,27.3975
2023-05-06T10:54:47.266Z,27.2525
2023-05-06T10:55:49.601Z,27.2983
2023-05-06T10:56:51.955Z,27.3303
2023-05-06T10:57:54.288Z,27.3255
2023-05-06T10:58:56.617Z,27.2470
2023-05-06T10:59:58.986Z,27.1601
2023-05-06T11:01:01.381Z,27.0406
2023-05-06T11:02:03.699Z,27.0743
2023-05-06T11:03:06.199Z,27.1053
2023-05-06T11:04:08.395Z,27.0248
2023-05-06T11:05:10.992Z,27.0501
2023-05-06T11:06:13.076Z,27.0639
2023-05-06T11:07:15.416Z,27.0185
2023-05-06T11:08:17.760Z,26.9488
2023-05-06T11:09:20.128Z,26.8822
2023-05-06T11:10:22.471Z,26.8395
2023-05-06T11:11:24.862Z,26.8623
2023-05-06T11:12:27.177Z,26.9030
2023-05-06T11:13:29.655Z,26.9818
2023-05-06T11:14:32.377Z,26.9603
2023-05-06T11:15:34.220Z,26.9806
2023-05-06T11:16:38.684Z,26.9758
2023-05-06T11:17:38.941Z,27.0364
2023-05-06T11:18:41.349Z,27.0472
2023-05-06T11:19:43.640Z,26.9749
2023-05-06T11:20:45.980Z,26.8378
2023-05-06T11:21:50.060Z,26.7480
2023-05-06T11:22:50.684Z,26.7073
2023-05-06T11:23:52.991Z,26.6923
2023-05-06T11:24:55.374Z,26.7189
2023-05-06T11:25:57.722Z,26.7787
2023-05-06T11:27:00.054Z,26.8556
2023-05-06T11:28:02.427Z,26.9116
2023-05-06T11:29:04.743Z,26.9508
2023-05-06T11:30:07.140Z,26.9660
2023-05-06T11:31:09.558Z,27.0278
2023-05-06T11:32:11.801Z,27.0765
2023-05-06T11:33:14.305Z,27.1249
2023-05-06T11:34:16.649Z,27.1828
2023-05-06T11:35:18.865Z,27.2830
2023-05-06T11:36:21.212Z,27.3419
2023-05-06T11:37:23.569Z,27.3753
2023-05-06T11:38:25.876Z,27.4050
2023-05-06T11:39:28.226Z,27.4756
2023-05-06T11:40:30.569Z,27.5708
2023-05-06T11:41:32.940Z,27.6528
2023-05-06T11:42:35.284Z,27.7135
2023-05-06T11:43:37.633Z,27.7863
2023-05-06T11:44:39.970Z,27.8145
2023-05-06T11:45:42.331Z,27.7687
2023-05-06T11:46:44.701Z,27.7694
2023-05-06T11:47:47.152Z,27.8248
2023-05-06T11:48:49.333Z,27.8419
2023-05-06T11:49:51.780Z,27.7188
2023-05-06T11:50:54.063Z,27.6717
2023-05-06T11:51:56.398Z,27.6856
2023-05-06T11:52:58.721Z,27.7253
2023-05-06T11:54:01.107Z,27.8046
2023-05-06T11:55:03.443Z,27.8468
2023-05-06T11:56:05.975Z,27.8047
2023-05-06T11:57:08.160Z,27.7612
2023-05-06T11:58:10.500Z,27.7641
2023-05-06T11:59:12.882Z,27.7241
2023-05-06T12:00:15.775Z,27.7296
2023-05-06T12:01:46.341Z,27.7438
2023-05-06T12:02:48.794Z,27.6793
2023-05-06T12:03:51.218Z,27.5818
2023-05-06T12:04:53.592Z,27.5375
2023-05-06T12:05:56.054Z,27.5805
2023-05-06T12:06:58.388Z,27.6448
2023-05-06T12:08:00.442Z,27.7025
2023-05-06T12:09:02.835Z,27.7879
2023-05-06T12:10:05.184Z,27.7935
2023-05-06T12:11:07.666Z,27.7891
2023-05-06T12:12:09.868Z,27.7943
2023-05-06T12:13:12.274Z,27.8481
2023-05-06T12:14:14.522Z,27.8483
2023-05-06T12:15:16.881Z,27.8567
2023-05-06T12:16:19.321Z,27.8631
2023-05-06T12:17:21.595Z,27.8737
2023-05-06T12:18:23.905Z,27.8104
2023-05-06T12:19:26.294Z,27.8438
2023-05-06T12:20:28.621Z,27.8226
2023-05-06T12:21:31.045Z,27.8101
2023-05-06T12:22:33.314Z,27.8198
2023-05-06T12:23:35.706Z,27.8171
2023-05-06T12:24:38.015Z,27.8269
2023-05-06T12:25:40.345Z,27.8611
2023-05-06T12:26:42.734Z,27.8367
2023-05-06T12:27:45.065Z,27.8938
2023-05-06T12:28:47.388Z,27.9271
2023-05-06T12:29:49.749Z,27.9577
2023-05-06T12:30:52.098Z,27.9640
2023-05-06T12:31:54.494Z,27.9364
2023-05-06T12:32:56.901Z,27.9638
2023-05-06T12:34:01.088Z,28.0483